sensor_id;sensor_type;location;lat;lon;timestamp;P1;durP1;ratioP1;P2;durP2;ratioP2
17985;SDS011;9118;48.122;11.546;2023-07-31T00:00:46;3.20;;;2.53;;
17985;SDS011;9118;48.122;11.546;2023-07-31T00:03:14;6.13;;;2.60;;
17985;SDS011;9118;48.122;11.546;2023-07-31T00:05:41;4.80;;;2.70;;
17985;SDS011;9118;48.122;11.546;2023-07-31T00:08:09;3.17;;;2.80;;
17985;SDS011;9118;48.122;11.546;2023-07-31T00:10:36;3.53;;;2.53;;
17985;SDS011;9118;48.122;11.546;2023-07-31T00:13:03;3.17;;;2.63;;
17985;SDS011;9118;48.122;11.546;2023-07-31T00:15:30;3.37;;;2.50;;
17985;SDS011;9118;48.122;11.546;2023-07-31T00:17:58;2.93;;;2.50;;
17985;SDS011;9118;48.122;11.546;2023-07-31T00:20:26;2.97;;;2.50;;
17985;SDS011;9118;48.122;11.546;2023-07-31T00:22:53;2.40;;;2.20;;
17985;SDS011;9118;48.122;11.546;2023-07-31T00:25:21;3.40;;;2.93;;
17985;SDS011;9118;48.122;11.546;2023-07-31T00:27:49;3.47;;;2.40;;
17985;SDS011;9118;48.122;11.546;2023-07-31T00:30:17;2.80;;;2.57;;
17985;SDS011;9118;48.122;11.546;2023-07-31T00:32:44;3.47;;;2.60;;
17985;SDS011;9118;48.122;11.546;2023-07-31T00:35:11;2.47;;;2.23;;
17985;SDS011;9118;48.122;11.546;2023-07-31T00:37:38;3.80;;;2.87;;
17985;SDS011;9118;48.122;11.546;2023-07-31T00:40:06;2.80;;;2.50;;
17985;SDS011;9118;48.122;11.546;2023-07-31T00:42:35;4.67;;;2.83;;
17985;SDS011;9118;48.122;11.546;2023-07-31T00:45:02;3.30;;;2.50;;
17985;SDS011;9118;48.122;11.546;2023-07-31T00:47:30;4.17;;;2.40;;
17985;SDS011;9118;48.122;11.546;2023-07-31T00:49:57;2.87;;;2.30;;
17985;SDS011;9118;48.122;11.546;2023-07-31T00:52:24;4.90;;;2.73;;
17985;SDS011;9118;48.122;11.546;2023-07-31T00:54:51;5.77;;;2.90;;
17985;SDS011;9118;48.122;11.546;2023-07-31T00:57:18;3.70;;;2.80;;
17985;SDS011;9118;48.122;11.546;2023-07-31T00:59:47;4.37;;;2.50;;
17985;SDS011;9118;48.122;11.546;2023-07-31T01:02:14;5.63;;;2.83;;
17985;SDS011;9118;48.122;11.546;2023-07-31T01:04:42;3.93;;;2.70;;
17985;SDS011;9118;48.122;11.546;2023-07-31T01:07:11;2.50;;;2.30;;
17985;SDS011;9118;48.122;11.546;2023-07-31T01:09:44;2.80;;;2.60;;
17985;SDS011;9118;48.122;11.546;2023-07-31T01:12:18;3.40;;;2.60;;
17985;SDS011;9118;48.122;11.546;2023-07-31T01:14:53;4.13;;;2.83;;
17985;SDS011;9118;48.122;11.546;2023-07-31T01:17:29;3.80;;;2.80;;
17985;SDS011;9118;48.122;11.546;2023-07-31T01:19:56;3.63;;;2.90;;
17985;SDS011;9118;48.122;11.546;2023-07-31T01:22:35;4.20;;;3.00;;
17985;SDS011;9118;48.122;11.546;2023-07-31T01:25:15;4.03;;;3.03;;
17985;SDS011;9118;48.122;11.546;2023-07-31T01:27:59;3.00;;;2.70;;
17985;SDS011;9118;48.122;11.546;2023-07-31T01:30:32;4.73;;;2.77;;
17985;SDS011;9118;48.122;11.546;2023-07-31T01:33:02;3.33;;;2.80;;
17985;SDS011;9118;48.122;11.546;2023-07-31T01:35:32;3.60;;;2.87;;
17985;SDS011;9118;48.122;11.546;2023-07-31T01:37:59;5.03;;;2.97;;
17985;SDS011;9118;48.122;11.546;2023-07-31T01:40:28;5.80;;;2.87;;
17985;SDS011;9118;48.122;11.546;2023-07-31T01:42:57;4.80;;;3.10;;
17985;SDS011;9118;48.122;11.546;2023-07-31T01:45:24;4.17;;;3.17;;
17985;SDS011;9118;48.122;11.546;2023-07-31T01:47:52;4.57;;;3.00;;
17985;SDS011;9118;48.122;11.546;2023-07-31T01:50:20;3.07;;;2.63;;
17985;SDS011;9118;48.122;11.546;2023-07-31T01:52:47;4.83;;;3.83;;
17985;SDS011;9118;48.122;11.546;2023-07-31T01:55:16;5.60;;;3.40;;
17985;SDS011;9118;48.122;11.546;2023-07-31T01:57:43;5.53;;;2.93;;
17985;SDS011;9118;48.122;11.546;2023-07-31T02:00:15;4.40;;;2.90;;
17985;SDS011;9118;48.122;11.546;2023-07-31T02:02:42;5.97;;;2.87;;
17985;SDS011;9118;48.122;11.546;2023-07-31T02:05:14;3.03;;;2.73;;
17985;SDS011;9118;48.122;11.546;2023-07-31T02:07:41;2.97;;;2.60;;
17985;SDS011;9118;48.122;11.546;2023-07-31T02:10:09;4.40;;;2.90;;
17985;SDS011;9118;48.122;11.546;2023-07-31T02:12:36;4.23;;;2.77;;
17985;SDS011;9118;48.122;11.546;2023-07-31T02:15:03;3.07;;;2.77;;
17985;SDS011;9118;48.122;11.546;2023-07-31T02:17:32;5.70;;;2.80;;
17985;SDS011;9118;48.122;11.546;2023-07-31T02:19:59;3.30;;;2.70;;
17985;SDS011;9118;48.122;11.546;2023-07-31T02:22:27;3.57;;;2.87;;
17985;SDS011;9118;48.122;11.546;2023-07-31T02:24:56;3.67;;;2.90;;
17985;SDS011;9118;48.122;11.546;2023-07-31T02:27:23;4.83;;;3.10;;
17985;SDS011;9118;48.122;11.546;2023-07-31T02:29:52;5.00;;;3.40;;
17985;SDS011;9118;48.122;11.546;2023-07-31T02:32:20;3.23;;;2.90;;
17985;SDS011;9118;48.122;11.546;2023-07-31T02:34:48;5.13;;;3.00;;
17985;SDS011;9118;48.122;11.546;2023-07-31T02:37:16;3.37;;;2.90;;
17985;SDS011;9118;48.122;11.546;2023-07-31T02:39:44;3.93;;;2.90;;
17985;SDS011;9118;48.122;11.546;2023-07-31T02:42:12;3.20;;;2.90;;
17985;SDS011;9118;48.122;11.546;2023-07-31T02:44:41;5.93;;;3.27;;
17985;SDS011;9118;48.122;11.546;2023-07-31T02:47:08;4.50;;;2.83;;
17985;SDS011;9118;48.122;11.546;2023-07-31T02:49:35;3.27;;;2.90;;
17985;SDS011;9118;48.122;11.546;2023-07-31T02:52:04;4.00;;;3.00;;
17985;SDS011;9118;48.122;11.546;2023-07-31T02:54:32;3.90;;;2.80;;
17985;SDS011;9118;48.122;11.546;2023-07-31T02:56:59;4.00;;;2.70;;
17985;SDS011;9118;48.122;11.546;2023-07-31T02:59:27;3.70;;;2.80;;
17985;SDS011;9118;48.122;11.546;2023-07-31T03:01:54;5.20;;;2.90;;
17985;SDS011;9118;48.122;11.546;2023-07-31T03:04:21;3.13;;;2.77;;
17985;SDS011;9118;48.122;11.546;2023-07-31T03:06:48;3.63;;;3.10;;
17985;SDS011;9118;48.122;11.546;2023-07-31T03:09:23;3.27;;;2.93;;
17985;SDS011;9118;48.122;11.546;2023-07-31T03:11:51;4.33;;;3.00;;
17985;SDS011;9118;48.122;11.546;2023-07-31T03:14:18;4.53;;;3.07;;
17985;SDS011;9118;48.122;11.546;2023-07-31T03:16:45;4.87;;;3.00;;
17985;SDS011;9118;48.122;11.546;2023-07-31T03:19:18;3.33;;;3.10;;
17985;SDS011;9118;48.122;11.546;2023-07-31T03:21:45;4.67;;;3.00;;
17985;SDS011;9118;48.122;11.546;2023-07-31T03:24:12;4.87;;;3.77;;
17985;SDS011;9118;48.122;11.546;2023-07-31T03:26:42;5.67;;;3.03;;
17985;SDS011;9118;48.122;11.546;2023-07-31T03:29:09;4.37;;;3.43;;
17985;SDS011;9118;48.122;11.546;2023-07-31T03:31:36;3.97;;;3.10;;
17985;SDS011;9118;48.122;11.546;2023-07-31T03:34:03;4.97;;;3.50;;
17985;SDS011;9118;48.122;11.546;2023-07-31T03:36:32;4.63;;;3.33;;
17985;SDS011;9118;48.122;11.546;2023-07-31T03:39:02;6.47;;;3.27;;
17985;SDS011;9118;48.122;11.546;2023-07-31T03:41:32;5.30;;;3.37;;
17985;SDS011;9118;48.122;11.546;2023-07-31T03:44:00;3.90;;;3.50;;
17985;SDS011;9118;48.122;11.546;2023-07-31T03:46:27;6.23;;;4.30;;
17985;SDS011;9118;48.122;11.546;2023-07-31T03:48:54;4.50;;;3.43;;
17985;SDS011;9118;48.122;11.546;2023-07-31T03:51:24;5.13;;;3.50;;
17985;SDS011;9118;48.122;11.546;2023-07-31T03:53:51;3.83;;;3.33;;
17985;SDS011;9118;48.122;11.546;2023-07-31T03:56:18;3.90;;;3.27;;
17985;SDS011;9118;48.122;11.546;2023-07-31T03:58:45;4.10;;;3.60;;
17985;SDS011;9118;48.122;11.546;2023-07-31T04:01:14;6.00;;;3.80;;
17985;SDS011;9118;48.122;11.546;2023-07-31T04:03:40;5.83;;;3.40;;
17985;SDS011;9118;48.122;11.546;2023-07-31T04:06:07;5.27;;;4.03;;
17985;SDS011;9118;48.122;11.546;2023-07-31T04:08:35;5.17;;;3.67;;
17985;SDS011;9118;48.122;11.546;2023-07-31T04:11:02;4.23;;;3.57;;
17985;SDS011;9118;48.122;11.546;2023-07-31T04:13:29;5.77;;;3.50;;
17985;SDS011;9118;48.122;11.546;2023-07-31T04:15:56;4.13;;;3.30;;
17985;SDS011;9118;48.122;11.546;2023-07-31T04:18:25;4.40;;;3.50;;
17985;SDS011;9118;48.122;11.546;2023-07-31T04:20:52;4.03;;;3.33;;
17985;SDS011;9118;48.122;11.546;2023-07-31T04:23:19;6.43;;;3.70;;
17985;SDS011;9118;48.122;11.546;2023-07-31T04:25:46;7.43;;;3.97;;
17985;SDS011;9118;48.122;11.546;2023-07-31T04:28:13;6.80;;;4.17;;
17985;SDS011;9118;48.122;11.546;2023-07-31T04:30:41;4.93;;;3.83;;
17985;SDS011;9118;48.122;11.546;2023-07-31T04:33:08;5.47;;;4.23;;
17985;SDS011;9118;48.122;11.546;2023-07-31T04:35:37;5.03;;;4.37;;
17985;SDS011;9118;48.122;11.546;2023-07-31T04:38:04;5.50;;;4.07;;
17985;SDS011;9118;48.122;11.546;2023-07-31T04:40:34;6.57;;;3.90;;
17985;SDS011;9118;48.122;11.546;2023-07-31T04:43:01;3.93;;;3.60;;
17985;SDS011;9118;48.122;11.546;2023-07-31T04:45:28;5.63;;;3.80;;
17985;SDS011;9118;48.122;11.546;2023-07-31T04:47:55;3.93;;;3.40;;
17985;SDS011;9118;48.122;11.546;2023-07-31T04:50:22;5.43;;;3.57;;
17985;SDS011;9118;48.122;11.546;2023-07-31T04:52:50;4.77;;;3.43;;
17985;SDS011;9118;48.122;11.546;2023-07-31T04:55:17;3.60;;;3.30;;
17985;SDS011;9118;48.122;11.546;2023-07-31T04:57:44;6.07;;;4.00;;
17985;SDS011;9118;48.122;11.546;2023-07-31T05:00:11;4.23;;;3.70;;
17985;SDS011;9118;48.122;11.546;2023-07-31T05:02:38;7.13;;;3.80;;
17985;SDS011;9118;48.122;11.546;2023-07-31T05:05:05;4.87;;;4.20;;
17985;SDS011;9118;48.122;11.546;2023-07-31T05:07:32;7.03;;;3.70;;
17985;SDS011;9118;48.122;11.546;2023-07-31T05:10:02;3.97;;;3.10;;
17985;SDS011;9118;48.122;11.546;2023-07-31T05:12:30;6.73;;;4.13;;
17985;SDS011;9118;48.122;11.546;2023-07-31T05:15:04;5.07;;;3.67;;
17985;SDS011;9118;48.122;11.546;2023-07-31T05:17:32;4.53;;;3.87;;
17985;SDS011;9118;48.122;11.546;2023-07-31T05:20:00;6.80;;;4.23;;
17985;SDS011;9118;48.122;11.546;2023-07-31T05:22:27;8.57;;;3.90;;
17985;SDS011;9118;48.122;11.546;2023-07-31T05:24:54;4.77;;;3.83;;
17985;SDS011;9118;48.122;11.546;2023-07-31T05:27:23;5.50;;;3.97;;
17985;SDS011;9118;48.122;11.546;2023-07-31T05:29:53;4.93;;;4.10;;
17985;SDS011;9118;48.122;11.546;2023-07-31T05:32:20;4.33;;;3.80;;
17985;SDS011;9118;48.122;11.546;2023-07-31T05:34:47;5.63;;;4.30;;
17985;SDS011;9118;48.122;11.546;2023-07-31T05:37:17;4.43;;;3.77;;
17985;SDS011;9118;48.122;11.546;2023-07-31T05:39:44;6.03;;;3.90;;
17985;SDS011;9118;48.122;11.546;2023-07-31T05:42:11;8.23;;;3.73;;
17985;SDS011;9118;48.122;11.546;2023-07-31T05:44:39;4.93;;;3.30;;
17985;SDS011;9118;48.122;11.546;2023-07-31T05:47:06;5.60;;;3.47;;
17985;SDS011;9118;48.122;11.546;2023-07-31T05:49:33;3.93;;;3.00;;
17985;SDS011;9118;48.122;11.546;2023-07-31T05:52:00;3.40;;;3.00;;
17985;SDS011;9118;48.122;11.546;2023-07-31T05:54:27;4.27;;;2.90;;
17985;SDS011;9118;48.122;11.546;2023-07-31T05:56:54;3.97;;;2.83;;
17985;SDS011;9118;48.122;11.546;2023-07-31T05:59:21;5.13;;;3.80;;
17985;SDS011;9118;48.122;11.546;2023-07-31T06:01:49;7.03;;;3.20;;
17985;SDS011;9118;48.122;11.546;2023-07-31T06:04:16;5.30;;;3.10;;
17985;SDS011;9118;48.122;11.546;2023-07-31T06:06:43;6.17;;;3.13;;
17985;SDS011;9118;48.122;11.546;2023-07-31T06:09:10;4.23;;;2.80;;
17985;SDS011;9118;48.122;11.546;2023-07-31T06:11:39;6.43;;;3.43;;
17985;SDS011;9118;48.122;11.546;2023-07-31T06:14:06;3.90;;;2.80;;
17985;SDS011;9118;48.122;11.546;2023-07-31T06:16:33;4.23;;;3.07;;
17985;SDS011;9118;48.122;11.546;2023-07-31T06:19:01;2.77;;;2.30;;
17985;SDS011;9118;48.122;11.546;2023-07-31T06:21:28;5.13;;;2.97;;
17985;SDS011;9118;48.122;11.546;2023-07-31T06:23:59;3.37;;;2.73;;
17985;SDS011;9118;48.122;11.546;2023-07-31T06:26:26;3.77;;;2.93;;
17985;SDS011;9118;48.122;11.546;2023-07-31T06:28:57;2.87;;;2.60;;
17985;SDS011;9118;48.122;11.546;2023-07-31T06:31:24;5.10;;;2.67;;
17985;SDS011;9118;48.122;11.546;2023-07-31T06:33:51;3.87;;;2.63;;
17985;SDS011;9118;48.122;11.546;2023-07-31T06:36:20;4.17;;;2.50;;
17985;SDS011;9118;48.122;11.546;2023-07-31T06:38:47;3.67;;;2.47;;
17985;SDS011;9118;48.122;11.546;2023-07-31T06:41:14;4.77;;;2.97;;
17985;SDS011;9118;48.122;11.546;2023-07-31T06:43:41;3.30;;;2.17;;
17985;SDS011;9118;48.122;11.546;2023-07-31T06:46:08;4.43;;;2.73;;
17985;SDS011;9118;48.122;11.546;2023-07-31T06:48:36;2.93;;;2.37;;
17985;SDS011;9118;48.122;11.546;2023-07-31T06:51:03;3.50;;;2.77;;
17985;SDS011;9118;48.122;11.546;2023-07-31T06:53:31;3.00;;;2.53;;
17985;SDS011;9118;48.122;11.546;2023-07-31T06:55:58;2.90;;;2.70;;
17985;SDS011;9118;48.122;11.546;2023-07-31T06:58:25;5.27;;;2.90;;
17985;SDS011;9118;48.122;11.546;2023-07-31T07:00:55;7.20;;;3.33;;
17985;SDS011;9118;48.122;11.546;2023-07-31T07:03:22;5.90;;;2.60;;
17985;SDS011;9118;48.122;11.546;2023-07-31T07:05:49;3.57;;;2.90;;
17985;SDS011;9118;48.122;11.546;2023-07-31T07:08:16;2.72;;;2.40;;
17985;SDS011;9118;48.122;11.546;2023-07-31T07:10:44;5.60;;;3.00;;
17985;SDS011;9118;48.122;11.546;2023-07-31T07:13:15;5.47;;;2.43;;
17985;SDS011;9118;48.122;11.546;2023-07-31T07:15:43;3.77;;;2.33;;
17985;SDS011;9118;48.122;11.546;2023-07-31T07:18:13;3.43;;;2.50;;
17985;SDS011;9118;48.122;11.546;2023-07-31T07:20:41;4.50;;;2.60;;
17985;SDS011;9118;48.122;11.546;2023-07-31T07:23:13;2.90;;;2.47;;
17985;SDS011;9118;48.122;11.546;2023-07-31T07:25:45;3.17;;;2.20;;
17985;SDS011;9118;48.122;11.546;2023-07-31T07:28:12;2.93;;;2.40;;
17985;SDS011;9118;48.122;11.546;2023-07-31T07:30:39;3.30;;;2.73;;
17985;SDS011;9118;48.122;11.546;2023-07-31T07:33:06;3.13;;;2.50;;
17985;SDS011;9118;48.122;11.546;2023-07-31T07:35:34;4.30;;;2.87;;
17985;SDS011;9118;48.122;11.546;2023-07-31T07:38:02;5.07;;;2.73;;
17985;SDS011;9118;48.122;11.546;2023-07-31T07:40:29;5.43;;;2.70;;
17985;SDS011;9118;48.122;11.546;2023-07-31T07:42:59;4.40;;;2.40;;
17985;SDS011;9118;48.122;11.546;2023-07-31T07:45:26;4.37;;;2.83;;
17985;SDS011;9118;48.122;11.546;2023-07-31T07:47:53;3.93;;;2.40;;
17985;SDS011;9118;48.122;11.546;2023-07-31T07:50:22;3.53;;;2.60;;
17985;SDS011;9118;48.122;11.546;2023-07-31T07:52:51;2.60;;;2.40;;
17985;SDS011;9118;48.122;11.546;2023-07-31T07:55:21;2.50;;;2.30;;
17985;SDS011;9118;48.122;11.546;2023-07-31T07:57:48;4.30;;;2.50;;
17985;SDS011;9118;48.122;11.546;2023-07-31T08:00:17;4.07;;;2.53;;
17985;SDS011;9118;48.122;11.546;2023-07-31T08:02:46;3.30;;;2.33;;
17985;SDS011;9118;48.122;11.546;2023-07-31T08:05:13;2.97;;;2.40;;
17985;SDS011;9118;48.122;11.546;2023-07-31T08:07:42;3.95;;;2.53;;
17985;SDS011;9118;48.122;11.546;2023-07-31T08:10:10;3.40;;;2.40;;
17985;SDS011;9118;48.122;11.546;2023-07-31T08:12:37;3.33;;;2.93;;
17985;SDS011;9118;48.122;11.546;2023-07-31T08:15:06;3.38;;;2.33;;
17985;SDS011;9118;48.122;11.546;2023-07-31T08:17:43;3.90;;;2.47;;
17985;SDS011;9118;48.122;11.546;2023-07-31T08:20:19;3.10;;;2.37;;
17985;SDS011;9118;48.122;11.546;2023-07-31T08:22:47;4.50;;;2.60;;
17985;SDS011;9118;48.122;11.546;2023-07-31T08:25:15;4.43;;;2.42;;
17985;SDS011;9118;48.122;11.546;2023-07-31T08:27:48;2.57;;;2.30;;
17985;SDS011;9118;48.122;11.546;2023-07-31T08:30:17;4.73;;;2.40;;
17985;SDS011;9118;48.122;11.546;2023-07-31T08:32:47;3.50;;;2.40;;
17985;SDS011;9118;48.122;11.546;2023-07-31T08:35:14;3.97;;;2.63;;
17985;SDS011;9118;48.122;11.546;2023-07-31T08:37:41;5.17;;;2.30;;
17985;SDS011;9118;48.122;11.546;2023-07-31T08:40:10;5.70;;;2.70;;
17985;SDS011;9118;48.122;11.546;2023-07-31T08:42:43;5.32;;;2.28;;
17985;SDS011;9118;48.122;11.546;2023-07-31T08:45:12;3.83;;;2.40;;
17985;SDS011;9118;48.122;11.546;2023-07-31T08:47:44;4.53;;;2.83;;
17985;SDS011;9118;48.122;11.546;2023-07-31T08:50:13;3.20;;;2.15;;
17985;SDS011;9118;48.122;11.546;2023-07-31T08:52:42;8.43;;;3.77;;
17985;SDS011;9118;48.122;11.546;2023-07-31T08:55:10;3.03;;;2.70;;
17985;SDS011;9118;48.122;11.546;2023-07-31T08:57:38;3.58;;;2.75;;
17985;SDS011;9118;48.122;11.546;2023-07-31T09:00:08;3.17;;;2.40;;
17985;SDS011;9118;48.122;11.546;2023-07-31T09:02:37;3.97;;;2.93;;
17985;SDS011;9118;48.122;11.546;2023-07-31T09:05:13;3.50;;;2.63;;
17985;SDS011;9118;48.122;11.546;2023-07-31T09:07:42;3.93;;;2.50;;
17985;SDS011;9118;48.122;11.546;2023-07-31T09:10:13;4.07;;;2.10;;
17985;SDS011;9118;48.122;11.546;2023-07-31T09:12:40;2.50;;;2.30;;
17985;SDS011;9118;48.122;11.546;2023-07-31T09:15:09;4.00;;;2.37;;
17985;SDS011;9118;48.122;11.546;2023-07-31T09:17:37;2.80;;;2.42;;
17985;SDS011;9118;48.122;11.546;2023-07-31T09:22:48;2.97;;;2.37;;
17985;SDS011;9118;48.122;11.546;2023-07-31T09:25:16;4.27;;;2.60;;
17985;SDS011;9118;48.122;11.546;2023-07-31T09:27:49;3.70;;;2.33;;
17985;SDS011;9118;48.122;11.546;2023-07-31T09:30:19;4.03;;;2.47;;
17985;SDS011;9118;48.122;11.546;2023-07-31T09:33:09;3.15;;;2.40;;
17985;SDS011;9118;48.122;11.546;2023-07-31T09:36:04;4.10;;;2.80;;
17985;SDS011;9118;48.122;11.546;2023-07-31T09:38:31;4.87;;;2.50;;
17985;SDS011;9118;48.122;11.546;2023-07-31T09:40:58;6.10;;;3.20;;
17985;SDS011;9118;48.122;11.546;2023-07-31T09:43:26;5.65;;;2.92;;
17985;SDS011;9118;48.122;11.546;2023-07-31T09:45:55;5.60;;;3.40;;
17985;SDS011;9118;48.122;11.546;2023-07-31T09:48:25;5.75;;;3.10;;
17985;SDS011;9118;48.122;11.546;2023-07-31T09:50:53;2.45;;;2.10;;
17985;SDS011;9118;48.122;11.546;2023-07-31T09:53:29;5.25;;;3.50;;
17985;SDS011;9118;48.122;11.546;2023-07-31T09:55:57;2.92;;;2.13;;
17985;SDS011;9118;48.122;11.546;2023-07-31T09:58:25;5.68;;;4.47;;
17985;SDS011;9118;48.122;11.546;2023-07-31T10:01:01;3.37;;;2.60;;
17985;SDS011;9118;48.122;11.546;2023-07-31T10:03:33;3.35;;;2.60;;
17985;SDS011;9118;48.122;11.546;2023-07-31T10:06:03;4.13;;;2.67;;
17985;SDS011;9118;48.122;11.546;2023-07-31T10:08:33;3.22;;;2.63;;
17985;SDS011;9118;48.122;11.546;2023-07-31T10:11:02;2.63;;;2.30;;
17985;SDS011;9118;48.122;11.546;2023-07-31T10:13:31;5.33;;;2.60;;
17985;SDS011;9118;48.122;11.546;2023-07-31T10:16:00;3.40;;;2.60;;
17985;SDS011;9118;48.122;11.546;2023-07-31T10:18:30;3.60;;;2.60;;
17985;SDS011;9118;48.122;11.546;2023-07-31T10:20:57;4.43;;;2.35;;
17985;SDS011;9118;48.122;11.546;2023-07-31T10:23:25;2.78;;;2.35;;
17985;SDS011;9118;48.122;11.546;2023-07-31T10:25:56;5.63;;;2.63;;
17985;SDS011;9118;48.122;11.546;2023-07-31T10:28:25;4.72;;;2.20;;
17985;SDS011;9118;48.122;11.546;2023-07-31T10:30:53;3.33;;;2.47;;
17985;SDS011;9118;48.122;11.546;2023-07-31T10:33:22;2.90;;;2.30;;
17985;SDS011;9118;48.122;11.546;2023-07-31T10:35:51;3.47;;;2.70;;
17985;SDS011;9118;48.122;11.546;2023-07-31T10:38:41;3.92;;;2.40;;
17985;SDS011;9118;48.122;11.546;2023-07-31T10:41:10;2.83;;;2.47;;
17985;SDS011;9118;48.122;11.546;2023-07-31T10:43:38;3.65;;;2.65;;
17985;SDS011;9118;48.122;11.546;2023-07-31T10:46:08;4.65;;;2.80;;
17985;SDS011;9118;48.122;11.546;2023-07-31T10:48:37;4.97;;;3.00;;
17985;SDS011;9118;48.122;11.546;2023-07-31T10:51:07;4.20;;;2.60;;
17985;SDS011;9118;48.122;11.546;2023-07-31T10:53:36;3.72;;;2.80;;
17985;SDS011;9118;48.122;11.546;2023-07-31T10:56:05;4.03;;;2.60;;
17985;SDS011;9118;48.122;11.546;2023-07-31T10:58:35;3.80;;;2.90;;
17985;SDS011;9118;48.122;11.546;2023-07-31T11:01:20;5.82;;;3.20;;
17985;SDS011;9118;48.122;11.546;2023-07-31T11:03:48;4.97;;;2.67;;
17985;SDS011;9118;48.122;11.546;2023-07-31T11:06:17;3.05;;;2.50;;
17985;SDS011;9118;48.122;11.546;2023-07-31T11:08:45;3.67;;;2.60;;
17985;SDS011;9118;48.122;11.546;2023-07-31T11:11:14;11.80;;;4.13;;
17985;SDS011;9118;48.122;11.546;2023-07-31T11:13:44;6.32;;;3.15;;
17985;SDS011;9118;48.122;11.546;2023-07-31T11:16:14;4.87;;;2.73;;
17985;SDS011;9118;48.122;11.546;2023-07-31T11:18:42;5.53;;;2.63;;
17985;SDS011;9118;48.122;11.546;2023-07-31T11:21:12;3.00;;;2.70;;
17985;SDS011;9118;48.122;11.546;2023-07-31T11:23:39;4.03;;;2.90;;
17985;SDS011;9118;48.122;11.546;2023-07-31T11:26:06;5.03;;;3.13;;
17985;SDS011;9118;48.122;11.546;2023-07-31T11:28:34;2.93;;;2.63;;
17985;SDS011;9118;48.122;11.546;2023-07-31T11:31:03;3.83;;;2.58;;
17985;SDS011;9118;48.122;11.546;2023-07-31T11:33:30;3.72;;;2.63;;
17985;SDS011;9118;48.122;11.546;2023-07-31T11:35:57;2.23;;;2.07;;
17985;SDS011;9118;48.122;11.546;2023-07-31T11:38:25;3.43;;;2.53;;
17985;SDS011;9118;48.122;11.546;2023-07-31T11:40:54;3.35;;;2.70;;
17985;SDS011;9118;48.122;11.546;2023-07-31T11:43:23;3.95;;;2.40;;
17985;SDS011;9118;48.122;11.546;2023-07-31T11:45:52;3.03;;;2.20;;
17985;SDS011;9118;48.122;11.546;2023-07-31T11:48:23;3.57;;;2.60;;
17985;SDS011;9118;48.122;11.546;2023-07-31T11:50:52;3.38;;;2.33;;
17985;SDS011;9118;48.122;11.546;2023-07-31T11:53:21;3.40;;;2.47;;
17985;SDS011;9118;48.122;11.546;2023-07-31T11:55:51;4.28;;;2.70;;
17985;SDS011;9118;48.122;11.546;2023-07-31T11:58:19;4.93;;;2.60;;
17985;SDS011;9118;48.122;11.546;2023-07-31T12:00:47;3.80;;;2.55;;
17985;SDS011;9118;48.122;11.546;2023-07-31T12:03:15;3.58;;;2.58;;
17985;SDS011;9118;48.122;11.546;2023-07-31T12:05:44;3.00;;;2.40;;
17985;SDS011;9118;48.122;11.546;2023-07-31T12:08:14;3.50;;;2.72;;
17985;SDS011;9118;48.122;11.546;2023-07-31T12:10:44;2.63;;;2.10;;
17985;SDS011;9118;48.122;11.546;2023-07-31T12:13:19;10.70;;;3.38;;
17985;SDS011;9118;48.122;11.546;2023-07-31T12:15:48;2.42;;;2.22;;
17985;SDS011;9118;48.122;11.546;2023-07-31T12:18:20;3.07;;;2.60;;
17985;SDS011;9118;48.122;11.546;2023-07-31T12:20:54;4.63;;;2.70;;
17985;SDS011;9118;48.122;11.546;2023-07-31T12:23:23;3.10;;;2.55;;
17985;SDS011;9118;48.122;11.546;2023-07-31T12:26:00;3.35;;;2.28;;
17985;SDS011;9118;48.122;11.546;2023-07-31T12:28:35;2.60;;;2.40;;
17985;SDS011;9118;48.122;11.546;2023-07-31T12:31:06;4.00;;;2.38;;
17985;SDS011;9118;48.122;11.546;2023-07-31T12:33:35;3.42;;;2.63;;
17985;SDS011;9118;48.122;11.546;2023-07-31T12:36:08;3.03;;;2.47;;
17985;SDS011;9118;48.122;11.546;2023-07-31T12:38:38;3.10;;;2.45;;
17985;SDS011;9118;48.122;11.546;2023-07-31T12:41:08;5.15;;;2.35;;
17985;SDS011;9118;48.122;11.546;2023-07-31T12:43:37;3.58;;;2.55;;
17985;SDS011;9118;48.122;11.546;2023-07-31T12:46:07;2.72;;;2.20;;
17985;SDS011;9118;48.122;11.546;2023-07-31T12:48:37;2.73;;;2.30;;
17985;SDS011;9118;48.122;11.546;2023-07-31T12:51:14;3.00;;;2.67;;
17985;SDS011;9118;48.122;11.546;2023-07-31T12:53:41;2.95;;;2.45;;
17985;SDS011;9118;48.122;11.546;2023-07-31T12:56:08;3.78;;;2.78;;
17985;SDS011;9118;48.122;11.546;2023-07-31T12:58:35;3.00;;;2.63;;
17985;SDS011;9118;48.122;11.546;2023-07-31T13:01:02;3.38;;;2.65;;
17985;SDS011;9118;48.122;11.546;2023-07-31T13:03:31;2.70;;;2.15;;
17985;SDS011;9118;48.122;11.546;2023-07-31T13:05:58;4.70;;;2.70;;
17985;SDS011;9118;48.122;11.546;2023-07-31T13:08:27;5.47;;;2.23;;
17985;SDS011;9118;48.122;11.546;2023-07-31T13:10:55;2.22;;;1.95;;
17985;SDS011;9118;48.122;11.546;2023-07-31T13:13:23;3.22;;;2.47;;
17985;SDS011;9118;48.122;11.546;2023-07-31T13:15:50;3.60;;;2.85;;
17985;SDS011;9118;48.122;11.546;2023-07-31T13:18:18;2.55;;;2.35;;
17985;SDS011;9118;48.122;11.546;2023-07-31T13:20:45;4.03;;;2.97;;
17985;SDS011;9118;48.122;11.546;2023-07-31T13:23:12;4.18;;;2.65;;
17985;SDS011;9118;48.122;11.546;2023-07-31T13:25:40;5.07;;;2.50;;
17985;SDS011;9118;48.122;11.546;2023-07-31T13:28:08;3.03;;;2.28;;
17985;SDS011;9118;48.122;11.546;2023-07-31T13:30:35;2.63;;;2.00;;
17985;SDS011;9118;48.122;11.546;2023-07-31T13:33:02;7.53;;;3.90;;
17985;SDS011;9118;48.122;11.546;2023-07-31T13:35:29;4.60;;;2.92;;
17985;SDS011;9118;48.122;11.546;2023-07-31T13:37:57;2.57;;;2.40;;
17985;SDS011;9118;48.122;11.546;2023-07-31T13:40:26;2.50;;;2.15;;
17985;SDS011;9118;48.122;11.546;2023-07-31T13:42:54;3.00;;;2.60;;
17985;SDS011;9118;48.122;11.546;2023-07-31T13:45:21;3.88;;;2.47;;
17985;SDS011;9118;48.122;11.546;2023-07-31T13:47:49;4.28;;;2.40;;
17985;SDS011;9118;48.122;11.546;2023-07-31T13:50:19;3.25;;;2.67;;
17985;SDS011;9118;48.122;11.546;2023-07-31T13:52:47;2.83;;;2.45;;
17985;SDS011;9118;48.122;11.546;2023-07-31T13:55:14;2.42;;;2.22;;
17985;SDS011;9118;48.122;11.546;2023-07-31T13:57:41;3.78;;;2.38;;
17985;SDS011;9118;48.122;11.546;2023-07-31T14:00:10;3.97;;;2.20;;
17985;SDS011;9118;48.122;11.546;2023-07-31T14:02:38;3.15;;;2.47;;
17985;SDS011;9118;48.122;11.546;2023-07-31T14:05:06;4.15;;;2.10;;
17985;SDS011;9118;48.122;11.546;2023-07-31T14:07:34;2.47;;;2.28;;
17985;SDS011;9118;48.122;11.546;2023-07-31T14:10:01;2.83;;;2.53;;
17985;SDS011;9118;48.122;11.546;2023-07-31T14:12:30;4.85;;;3.08;;
17985;SDS011;9118;48.122;11.546;2023-07-31T14:14:58;3.92;;;2.60;;
17985;SDS011;9118;48.122;11.546;2023-07-31T14:17:26;2.47;;;1.83;;
17985;SDS011;9118;48.122;11.546;2023-07-31T14:19:56;2.35;;;2.00;;
17985;SDS011;9118;48.122;11.546;2023-07-31T14:22:29;3.80;;;1.90;;
17985;SDS011;9118;48.122;11.546;2023-07-31T14:24:58;4.28;;;2.20;;
17985;SDS011;9118;48.122;11.546;2023-07-31T14:27:25;2.40;;;2.20;;
17985;SDS011;9118;48.122;11.546;2023-07-31T14:29:52;4.43;;;2.47;;
17985;SDS011;9118;48.122;11.546;2023-07-31T14:32:20;3.95;;;2.10;;
17985;SDS011;9118;48.122;11.546;2023-07-31T14:34:49;3.45;;;2.17;;
17985;SDS011;9118;48.122;11.546;2023-07-31T14:37:16;3.95;;;2.30;;
17985;SDS011;9118;48.122;11.546;2023-07-31T14:39:44;3.83;;;2.17;;
17985;SDS011;9118;48.122;11.546;2023-07-31T14:42:11;2.15;;;1.98;;
17985;SDS011;9118;48.122;11.546;2023-07-31T14:44:38;2.88;;;2.20;;
17985;SDS011;9118;48.122;11.546;2023-07-31T14:47:05;3.20;;;2.20;;
17985;SDS011;9118;48.122;11.546;2023-07-31T14:49:32;3.10;;;2.80;;
17985;SDS011;9118;48.122;11.546;2023-07-31T14:52:01;2.65;;;2.40;;
17985;SDS011;9118;48.122;11.546;2023-07-31T14:54:28;3.92;;;2.40;;
17985;SDS011;9118;48.122;11.546;2023-07-31T14:56:55;3.13;;;2.83;;
17985;SDS011;9118;48.122;11.546;2023-07-31T14:59:22;2.78;;;2.53;;